Time;durP1;ratioP1;P1;durP2;ratioP2;P2;SDS_P1;SDS_P2;PMS_P1;PMS_P2;Temp;Humidity;BMP_temperature;BMP_pressure;BME280_temperature;BME280_humidity;BME280_pressure;Samples;Min_cycle;Max_cycle;Signal;HPM_P1;HPM_P2
2024/01/30 00:02:19;;;;;;;4.90;3.00;;;16.30;60.00;;;;;;5150962;27;45446;-49
2024/01/30 00:04:46;;;;;;;4.95;3.10;;;16.30;60.00;;;;;;5149397;27;45145;-49
2024/01/30 00:07:13;;;;;;;3.92;2.75;;;16.30;60.00;;;;;;5150118;27;45633;-49
2024/01/30 00:09:40;;;;;;;4.80;2.97;;;16.30;60.10;;;;;;5150968;27;46324;-50
2024/01/30 00:12:07;;;;;;;4.70;2.80;;;16.30;60.20;;;;;;5151871;27;44656;-50
2024/01/30 00:14:34;;;;;;;4.07;2.95;;;16.30;59.90;;;;;;5149341;27;45281;-50
2024/01/30 00:17:01;;;;;;;19.92;9.02;;;16.30;59.90;;;;;;5153397;27;44687;-50
2024/01/30 00:19:29;;;;;;;14.43;7.18;;;16.40;60.10;;;;;;5150198;27;45345;-50
2024/01/30 00:21:56;;;;;;;11.00;5.68;;;16.40;60.10;;;;;;5152825;27;45215;-50
2024/01/30 00:24:23;;;;;;;10.75;5.47;;;16.50;59.90;;;;;;5149247;27;44671;-50
2024/01/30 00:26:50;;;;;;;11.05;5.15;;;16.50;59.60;;;;;;5153409;27;45129;-50
2024/01/30 00:29:19;;;;;;;8.70;4.47;;;16.60;59.60;;;;;;5150928;27;47313;-49
2024/01/30 00:31:46;;;;;;;7.88;4.72;;;16.50;59.50;;;;;;5151379;27;45672;-50
2024/01/30 00:34:13;;;;;;;8.20;4.72;;;16.60;59.50;;;;;;5148756;27;45344;-50
2024/01/30 00:36:41;;;;;;;7.38;4.30;;;16.50;59.30;;;;;;5146410;27;45131;-50
2024/01/30 00:39:09;;;;;;;6.05;3.88;;;16.50;59.30;;;;;;5149710;27;45357;-50
2024/01/30 00:41:36;;;;;;;9.43;4.50;;;16.60;59.50;;;;;;5152798;27;45416;-50
2024/01/30 00:44:03;;;;;;;6.28;3.83;;;16.50;59.30;;;;;;5154253;27;45206;-50
2024/01/30 00:46:30;;;;;;;7.78;4.30;;;16.50;59.40;;;;;;5152364;27;45102;-50
2024/01/30 00:48:57;;;;;;;7.22;4.00;;;16.50;59.50;;;;;;5148682;27;45174;-50
2024/01/30 00:51:24;;;;;;;8.85;4.00;;;16.50;59.60;;;;;;5153462;27;45286;-50
2024/01/30 00:53:52;;;;;;;8.15;3.90;;;16.50;59.60;;;;;;5149632;27;45207;-50
2024/01/30 00:56:20;;;;;;;6.47;4.00;;;16.50;59.50;;;;;;5148683;27;45204;-50
2024/01/30 00:58:47;;;;;;;7.55;4.15;;;16.40;59.50;;;;;;5150277;27;45249;-50
2024/01/30 01:01:14;;;;;;;6.65;3.97;;;16.40;59.80;;;;;;5149515;27;45192;-50
2024/01/30 01:03:43;;;;;;;5.53;3.40;;;16.40;59.60;;;;;;5150744;27;45212;-50
2024/01/30 01:06:10;;;;;;;6.85;3.72;;;16.30;59.90;;;;;;5152276;27;45253;-50
2024/01/30 01:08:37;;;;;;;6.90;3.75;;;16.30;60.10;;;;;;5151397;27;45259;-50
2024/01/30 01:11:05;;;;;;;8.43;3.90;;;16.30;60.20;;;;;;5152393;27;45234;-50
2024/01/30 01:13:31;;;;;;;5.70;3.60;;;16.30;61.10;;;;;;5151289;27;45277;-50
2024/01/30 01:15:58;;;;;;;7.70;3.72;;;16.40;60.10;;;;;;5149196;27;45104;-50
2024/01/30 01:18:25;;;;;;;6.47;3.72;;;16.40;59.80;;;;;;5153399;27;45162;-50
2024/01/30 01:20:52;;;;;;;5.03;3.03;;;16.40;59.80;;;;;;5155806;27;45108;-50
2024/01/30 01:23:18;;;;;;;7.25;3.63;;;16.40;59.60;;;;;;5150304;27;45225;-50
2024/01/30 01:25:45;;;;;;;7.22;3.42;;;16.40;59.60;;;;;;5150498;27;45183;-50
2024/01/30 01:28:13;;;;;;;6.45;3.90;;;16.40;59.60;;;;;;5150151;27;45432;-50
2024/01/30 01:30:40;;;;;;;6.45;3.70;;;16.40;59.50;;;;;;5152857;27;45161;-50
2024/01/30 01:33:07;;;;;;;5.60;3.35;;;16.40;59.60;;;;;;5150315;27;44666;-50
2024/01/30 01:35:34;;;;;;;6.05;3.42;;;16.40;59.60;;;;;;5149551;27;45265;-50
2024/01/30 01:38:00;;;;;;;5.03;3.60;;;16.40;59.70;;;;;;5148834;27;47253;-50
2024/01/30 01:40:28;;;;;;;6.35;3.35;;;16.40;59.80;;;;;;5149382;27;45218;-50
2024/01/30 01:42:56;;;;;;;6.78;3.83;;;16.40;59.70;;;;;;5152076;27;45495;-50
2024/01/30 01:45:24;;;;;;;8.38;3.50;;;16.30;59.80;;;;;;5151562;27;45386;-50
2024/01/30 01:47:52;;;;;;;7.25;3.50;;;16.30;59.90;;;;;;5150232;27;48492;-50
2024/01/30 01:50:21;;;;;;;6.15;3.53;;;16.30;59.90;;;;;;5151237;27;45295;-50
2024/01/30 01:52:49;;;;;;;5.53;3.45;;;16.30;59.90;;;;;;5148627;27;45222;-50
2024/01/30 01:55:17;;;;;;;4.95;3.40;;;16.30;59.80;;;;;;5153151;27;45423;-50
2024/01/30 01:57:44;;;;;;;6.00;3.20;;;16.30;59.80;;;;;;5147129;27;46968;-50
2024/01/30 02:00:12;;;;;;;4.82;3.10;;;16.30;59.90;;;;;;5147975;27;45098;-50
2024/01/30 02:02:41;;;;;;;5.82;3.50;;;16.30;59.90;;;;;;5147950;27;46201;-49
2024/01/30 02:05:09;;;;;;;5.20;3.40;;;16.30;59.00;;;;;;5149746;27;45422;-49
2024/01/30 02:07:36;;;;;;;6.65;3.50;;;16.20;57.70;;;;;;5149357;27;45158;-49
2024/01/30 02:10:03;;;;;;;5.45;3.15;;;16.20;58.10;;;;;;5149864;27;46082;-49
2024/01/30 02:12:30;;;;;;;6.65;3.30;;;16.30;58.50;;;;;;5149493;27;45212;-49
2024/01/30 02:14:57;;;;;;;6.28;3.28;;;16.30;58.50;;;;;;5149763;27;44928;-49
2024/01/30 02:17:24;;;;;;;5.57;3.45;;;16.30;58.60;;;;;;5150103;27;46239;-49
2024/01/30 02:19:53;;;;;;;6.03;3.60;;;16.30;58.60;;;;;;5151432;27;45257;-49
2024/01/30 02:22:21;;;;;;;5.50;3.50;;;16.30;58.60;;;;;;5152348;27;45472;-49
2024/01/30 02:24:48;;;;;;;5.45;3.35;;;16.40;58.70;;;;;;5151708;27;45189;-49
2024/01/30 02:27:15;;;;;;;6.38;3.28;;;16.40;58.80;;;;;;5152307;27;47140;-49
2024/01/30 02:29:42;;;;;;;5.90;3.47;;;16.40;58.90;;;;;;5153571;27;45213;-49
2024/01/30 02:32:08;;;;;;;4.75;3.00;;;16.40;58.80;;;;;;5150979;27;45241;-49
2024/01/30 02:34:35;;;;;;;7.90;3.30;;;16.40;58.90;;;;;;5152469;27;44717;-49
2024/01/30 02:37:02;;;;;;;3.75;2.70;;;16.40;59.00;;;;;;5153521;27;45220;-49
2024/01/30 02:39:30;;;;;;;4.63;3.28;;;16.40;59.10;;;;;;5148653;27;45153;-50
2024/01/30 02:41:57;;;;;;;5.63;2.88;;;16.40;59.20;;;;;;5152052;27;45344;-49
2024/01/30 02:44:24;;;;;;;5.93;3.50;;;16.40;59.10;;;;;;5152877;27;45421;-49
2024/01/30 02:46:50;;;;;;;4.38;2.90;;;16.30;59.20;;;;;;5154003;27;45192;-49
2024/01/30 02:49:17;;;;;;;4.65;3.10;;;16.30;59.20;;;;;;5149495;27;45222;-49
2024/01/30 02:51:44;;;;;;;4.68;2.78;;;16.30;59.10;;;;;;5151433;27;45148;-49
2024/01/30 02:54:10;;;;;;;4.20;3.03;;;16.30;59.10;;;;;;5151400;27;45305;-49
2024/01/30 02:56:38;;;;;;;6.13;3.20;;;16.30;59.30;;;;;;5151176;27;47294;-49
2024/01/30 02:59:05;;;;;;;5.32;3.03;;;16.30;59.10;;;;;;5152819;27;45293;-49
2024/01/30 03:01:32;;;;;;;8.85;3.65;;;16.30;58.20;;;;;;5151238;27;45172;-49
2024/01/30 03:03:59;;;;;;;6.82;3.50;;;16.30;57.60;;;;;;5152001;27;45376;-49
2024/01/30 03:06:26;;;;;;;5.07;3.00;;;16.30;58.40;;;;;;5151463;27;47219;-49
2024/01/30 03:08:52;;;;;;;4.47;3.00;;;16.30;58.60;;;;;;5151693;27;45221;-49
2024/01/30 03:11:19;;;;;;;5.57;3.03;;;16.30;58.60;;;;;;5150170;27;45275;-49
2024/01/30 03:13:47;;;;;;;5.20;2.97;;;16.30;58.50;;;;;;5150196;27;45119;-49
2024/01/30 03:16:14;;;;;;;6.68;3.58;;;16.30;58.50;;;;;;5152723;27;47161;-49
2024/01/30 03:18:41;;;;;;;6.38;3.10;;;16.40;58.40;;;;;;5151030;27;45106;-49
2024/01/30 03:21:07;;;;;;;5.35;2.90;;;16.40;58.60;;;;;;5155775;27;45106;-49
2024/01/30 03:23:34;;;;;;;4.57;2.90;;;16.40;58.70;;;;;;5150554;27;45148;-49
2024/01/30 03:26:01;;;;;;;4.38;2.75;;;16.40;58.70;;;;;;5153459;27;46997;-49
2024/01/30 03:28:26;;;;;;;4.45;3.17;;;16.40;58.50;;;;;;5152673;27;45205;-49
2024/01/30 03:30:55;;;;;;;5.65;3.55;;;16.40;58.60;;;;;;5150589;27;45525;-49
2024/01/30 03:33:21;;;;;;;4.68;3.00;;;16.40;57.80;;;;;;5151395;27;45468;-49
2024/01/30 03:35:48;;;;;;;6.03;3.33;;;16.40;57.20;;;;;;5150413;27;46514;-50
2024/01/30 03:38:15;;;;;;;4.47;2.97;;;16.40;57.70;;;;;;5152089;27;45329;-50
2024/01/30 03:40:41;;;;;;;5.10;3.05;;;16.40;57.90;;;;;;5147935;27;44651;-50
2024/01/30 03:43:08;;;;;;;5.63;2.85;;;16.30;58.10;;;;;;5151652;27;45145;-50
2024/01/30 03:45:35;;;;;;;5.10;3.00;;;16.40;58.30;;;;;;5152556;27;45222;-50
2024/01/30 03:48:03;;;;;;;6.00;3.35;;;16.30;58.30;;;;;;5152868;27;45259;-50
2024/01/30 03:50:30;;;;;;;5.63;3.20;;;16.30;58.40;;;;;;5150345;27;45237;-50
2024/01/30 03:52:56;;;;;;;4.10;2.97;;;16.30;58.60;;;;;;5152048;27;45377;-49
2024/01/30 03:55:23;;;;;;;6.28;3.22;;;16.30;58.60;;;;;;5152156;27;46990;-50
2024/01/30 03:57:50;;;;;;;4.57;2.63;;;16.30;58.60;;;;;;5149391;27;45171;-49
2024/01/30 04:00:17;;;;;;;5.18;3.30;;;16.30;58.60;;;;;;5151892;27;45125;-49
2024/01/30 04:02:44;;;;;;;6.40;3.03;;;16.30;58.60;;;;;;5150675;27;45222;-49
2024/01/30 04:05:12;;;;;;;4.63;2.97;;;16.30;58.60;;;;;;5148927;27;46296;-49
2024/01/30 04:07:38;;;;;;;4.68;3.15;;;16.30;58.30;;;;;;5151209;27;45226;-49
2024/01/30 04:10:06;;;;;;;4.40;3.13;;;16.30;57.40;;;;;;5152798;27;44630;-50
2024/01/30 04:12:33;;;;;;;4.10;3.13;;;16.30;57.10;;;;;;5152250;27;45356;-50
2024/01/30 04:15:00;;;;;;;4.55;3.13;;;16.30;57.50;;;;;;5150271;27;47314;-50
2024/01/30 04:17:28;;;;;;;3.88;3.15;;;16.30;57.40;;;;;;5150677;27;45091;-50
2024/01/30 04:19:54;;;;;;;4.90;2.70;;;16.30;57.40;;;;;;5153737;27;45201;-49
2024/01/30 04:22:23;;;;;;;4.63;3.08;;;16.40;57.60;;;;;;5151279;27;44868;-50
2024/01/30 04:24:49;;;;;;;3.40;2.53;;;16.40;57.60;;;;;;5147015;27;45259;-50
2024/01/30 04:27:16;;;;;;;4.38;2.83;;;16.40;58.80;;;;;;5150486;27;45175;-49
2024/01/30 04:29:43;;;;;;;4.70;2.75;;;16.40;57.70;;;;;;5153552;27;44752;-49
2024/01/30 04:32:10;;;;;;;5.30;2.97;;;16.40;57.60;;;;;;5153118;27;45428;-49
2024/01/30 04:34:37;;;;;;;4.68;2.53;;;16.40;57.70;;;;;;5150892;27;45983;-49
2024/01/30 04:37:04;;;;;;;4.93;3.00;;;16.40;57.70;;;;;;5149268;27;45239;-49
2024/01/30 04:39:34;;;;;;;5.13;3.10;;;16.40;58.00;;;;;;5151408;27;45197;-50
2024/01/30 04:42:00;;;;;;;4.18;2.92;;;16.40;58.00;;;;;;5149538;27;45291;-50
2024/01/30 04:44:27;;;;;;;5.03;3.05;;;16.30;57.20;;;;;;5148068;27;46475;-49
2024/01/30 04:46:54;;;;;;;4.28;2.92;;;16.30;56.60;;;;;;5151811;27;46072;-49
2024/01/30 04:49:20;;;;;;;4.85;2.88;;;16.30;56.90;;;;;;5148545;27;45868;-50
2024/01/30 04:51:47;;;;;;;4.75;3.03;;;16.30;57.00;;;;;;5149381;27;45395;-49
2024/01/30 04:54:14;;;;;;;3.88;2.90;;;16.30;57.40;;;;;;5148339;27;44951;-50
2024/01/30 04:56:42;;;;;;;3.95;2.60;;;16.30;57.40;;;;;;5151872;27;44721;-50
2024/01/30 04:59:09;;;;;;;4.38;2.83;;;16.30;57.40;;;;;;5153139;27;45365;-49
2024/01/30 05:01:36;;;;;;;4.65;2.90;;;16.30;57.50;;;;;;5148769;27;45152;-49
2024/01/30 05:04:03;;;;;;;4.07;2.90;;;16.30;57.70;;;;;;5149768;27;45224;-49
2024/01/30 05:06:30;;;;;;;4.50;2.85;;;16.30;57.60;;;;;;5148259;27;45365;-50
2024/01/30 05:08:57;;;;;;;5.45;2.78;;;16.30;57.80;;;;;;5151106;27;45275;-49
2024/01/30 05:11:23;;;;;;;6.65;3.20;;;16.30;57.80;;;;;;5148948;27;45255;-50
2024/01/30 05:13:51;;;;;;;6.07;2.78;;;16.30;59.00;;;;;;5149527;27;48259;-49
2024/01/30 05:16:18;;;;;;;6.63;3.20;;;16.30;58.00;;;;;;5149299;27;45221;-49
2024/01/30 05:18:45;;;;;;;7.20;3.63;;;16.30;57.90;;;;;;5152012;27;45306;-49
2024/01/30 05:21:12;;;;;;;4.72;2.78;;;16.20;57.10;;;;;;5151732;27;45466;-49
2024/01/30 05:23:38;;;;;;;4.80;2.83;;;16.20;56.90;;;;;;5149527;27;47095;-49
2024/01/30 05:26:05;;;;;;;4.90;2.92;;;16.20;57.30;;;;;;5148701;27;45170;-49
2024/01/30 05:28:33;;;;;;;3.03;2.40;;;16.20;57.40;;;;;;5149430;27;45648;-49
2024/01/30 05:31:01;;;;;;;4.82;2.95;;;16.20;57.40;;;;;;5150462;27;45365;-49
2024/01/30 05:33:28;;;;;;;3.50;2.80;;;16.20;57.60;;;;;;5149776;27;47003;-49
2024/01/30 05:35:55;;;;;;;4.03;2.95;;;16.20;57.50;;;;;;5150677;27;45614;-49
2024/01/30 05:38:22;;;;;;;5.43;2.92;;;16.20;57.70;;;;;;5148691;27;45289;-49
2024/01/30 05:40:48;;;;;;;4.45;2.90;;;16.20;57.70;;;;;;5146385;27;45180;-49
2024/01/30 05:43:15;;;;;;;4.22;2.78;;;16.20;57.70;;;;;;5149313;27;46554;-49
2024/01/30 05:45:42;;;;;;;5.68;3.50;;;16.20;57.70;;;;;;5147061;27;45031;-49
2024/01/30 05:48:10;;;;;;;4.13;3.05;;;16.30;58.00;;;;;;5150730;27;45137;-49
2024/01/30 05:50:37;;;;;;;4.90;2.88;;;16.20;57.90;;;;;;5152812;27;45787;-49
2024/01/30 05:53:04;;;;;;;4.30;2.80;;;16.20;57.90;;;;;;5155362;27;46402;-49
2024/01/30 05:55:30;;;;;;;4.60;2.88;;;16.20;57.40;;;;;;5154083;27;45248;-49
2024/01/30 05:57:57;;;;;;;5.13;2.90;;;16.20;56.70;;;;;;5151062;27;45220;-49
2024/01/30 06:00:24;;;;;;;5.47;2.80;;;16.20;57.00;;;;;;5150743;27;45350;-49
2024/01/30 06:02:51;;;;;;;5.63;3.13;;;16.20;57.50;;;;;;5151869;27;47136;-49
2024/01/30 06:05:19;;;;;;;4.60;3.13;;;16.10;57.70;;;;;;5152444;27;45247;-49
2024/01/30 06:07:45;;;;;;;3.97;2.90;;;16.10;58.30;;;;;;5151102;27;45191;-49
2024/01/30 06:10:12;;;;;;;6.47;3.58;;;16.10;58.00;;;;;;5151709;27;44767;-49
2024/01/30 06:12:39;;;;;;;4.75;3.40;;;16.10;57.50;;;;;;5151906;27;46530;-49
2024/01/30 06:15:07;;;;;;;6.03;3.08;;;16.10;56.80;;;;;;5152639;27;45267;-49
2024/01/30 06:17:34;;;;;;;3.85;2.83;;;16.00;56.60;;;;;;5150616;27;45346;-50
2024/01/30 06:20:00;;;;;;;6.70;3.38;;;16.00;55.90;;;;;;5154832;27;45618;-49
2024/01/30 06:22:28;;;;;;;5.80;3.40;;;16.00;55.60;;;;;;5152238;27;46661;-49
2024/01/30 06:24:55;;;;;;;6.90;3.42;;;16.10;55.10;;;;;;5152817;27;45278;-49
2024/01/30 06:27:22;;;;;;;5.50;3.40;;;16.10;54.70;;;;;;5154348;27;45212;-49
2024/01/30 06:29:49;;;;;;;4.63;3.25;;;16.10;54.70;;;;;;5152769;27;44791;-49
2024/01/30 06:32:16;;;;;;;6.22;3.15;;;16.10;55.30;;;;;;5155222;27;45223;-49
2024/01/30 06:34:44;;;;;;;5.10;2.97;;;16.10;59.50;;;;;;5153009;27;44844;-49
2024/01/30 06:37:10;;;;;;;5.55;3.22;;;16.10;57.30;;;;;;5149266;27;45210;-49
2024/01/30 06:39:38;;;;;;;5.78;3.53;;;16.10;56.30;;;;;;5149673;27;45180;-49
2024/01/30 06:42:06;;;;;;;5.25;2.92;;;16.20;55.60;;;;;;5155405;27;46976;-49
2024/01/30 06:44:32;;;;;;;4.97;3.28;;;16.10;55.50;;;;;;5152692;27;45141;-49
2024/01/30 06:46:59;;;;;;;4.22;3.15;;;16.10;55.10;;;;;;5149467;27;45244;-49
2024/01/30 06:49:26;;;;;;;5.35;3.15;;;16.10;54.80;;;;;;5151930;27;45121;-49
2024/01/30 06:51:53;;;;;;;5.63;3.40;;;16.10;54.20;;;;;;5152247;27;45300;-49
2024/01/30 06:54:19;;;;;;;5.72;3.35;;;16.10;54.20;;;;;;5151336;27;45304;-49
2024/01/30 06:56:47;;;;;;;5.68;3.10;;;16.10;53.90;;;;;;5152981;27;45282;-49
2024/01/30 06:59:14;;;;;;;4.95;2.92;;;16.10;54.10;;;;;;5153118;27;45122;-49
2024/01/30 07:01:41;;;;;;;4.53;2.83;;;16.10;53.80;;;;;;5153353;27;45161;-49
2024/01/30 07:04:08;;;;;;;5.60;3.13;;;16.10;54.40;;;;;;5150425;27;45227;-50
2024/01/30 07:06:34;;;;;;;5.88;3.30;;;16.10;55.00;;;;;;5153059;27;45260;-49
2024/01/30 07:09:01;;;;;;;4.07;2.85;;;16.10;55.10;;;;;;5154761;27;45454;-49
2024/01/30 07:11:28;;;;;;;6.07;2.90;;;16.20;55.50;;;;;;5151032;27;46522;-49
2024/01/30 07:13:57;;;;;;;4.45;2.63;;;16.10;55.40;;;;;;5151706;27;45257;-49
2024/01/30 07:16:23;;;;;;;4.07;2.60;;;16.20;55.80;;;;;;5154589;27;45182;-49
2024/01/30 07:18:50;;;;;;;5.47;2.90;;;16.20;55.90;;;;;;5151903;27;45271;-49
2024/01/30 07:21:17;;;;;;;5.00;3.10;;;16.20;55.90;;;;;;5150248;27;46608;-49
2024/01/30 07:23:44;;;;;;;4.60;2.95;;;16.20;56.30;;;;;;5152649;27;45283;-49
2024/01/30 07:26:11;;;;;;;4.65;2.72;;;16.30;56.50;;;;;;5149784;27;45190;-49
2024/01/30 07:28:38;;;;;;;4.85;2.70;;;16.30;56.40;;;;;;5150270;27;45195;-50
2024/01/30 07:31:06;;;;;;;3.85;2.67;;;16.30;56.50;;;;;;5150582;27;46376;-50
2024/01/30 07:33:33;;;;;;;4.70;2.72;;;16.30;56.60;;;;;;5153433;27;45302;-50
2024/01/30 07:36:00;;;;;;;3.92;2.60;;;16.30;56.60;;;;;;5150537;27;45180;-49
2024/01/30 07:38:26;;;;;;;5.10;2.45;;;16.30;56.90;;;;;;5149804;27;45311;-50
2024/01/30 07:40:53;;;;;;;4.47;2.50;;;16.30;56.90;;;;;;5150596;27;45245;-49
2024/01/30 07:43:21;;;;;;;5.07;2.67;;;16.30;57.30;;;;;;5151601;27;44710;-49
2024/01/30 07:45:47;;;;;;;4.53;2.55;;;16.30;57.20;;;;;;5150796;27;45249;-49
2024/01/30 07:48:15;;;;;;;5.03;2.45;;;16.30;57.50;;;;;;5150229;27;45328;-50
2024/01/30 07:50:42;;;;;;;5.32;2.88;;;16.20;57.50;;;;;;5151268;27;46240;-49
2024/01/30 07:53:09;;;;;;;3.50;2.50;;;16.30;57.70;;;;;;5149418;27;45106;-49
2024/01/30 07:55:36;;;;;;;3.63;2.03;;;16.30;57.70;;;;;;5153022;27;45154;-49
2024/01/30 07:58:04;;;;;;;4.07;2.40;;;16.30;57.80;;;;;;5152559;27;45133;-49
2024/01/30 08:00:31;;;;;;;6.03;2.78;;;16.30;58.90;;;;;;5149406;27;45396;-49
2024/01/30 08:02:58;;;;;;;4.65;2.95;;;16.30;57.70;;;;;;5150796;27;45224;-49
2024/01/30 08:05:26;;;;;;;6.35;3.03;;;16.30;57.70;;;;;;5147789;27;45255;-49
2024/01/30 08:07:53;;;;;;;4.32;2.47;;;16.30;57.80;;;;;;5150863;27;45628;-49
2024/01/30 08:10:20;;;;;;;3.75;2.72;;;16.30;57.70;;;;;;5148946;27;46023;-49
2024/01/30 08:12:46;;;;;;;3.50;2.50;;;16.30;57.70;;;;;;5152455;27;45153;-49
2024/01/30 08:15:13;;;;;;;4.88;2.70;;;16.40;57.80;;;;;;5152641;27;45146;-49
2024/01/30 08:17:40;;;;;;;4.32;2.70;;;16.40;58.80;;;;;;5150788;27;45383;-49
2024/01/30 08:20:10;;;;;;;3.85;2.45;;;16.40;57.80;;;;;;5146764;27;46544;-49
2024/01/30 08:22:39;;;;;;;4.57;2.70;;;16.40;58.00;;;;;;5150055;27;45989;-49
2024/01/30 08:25:07;;;;;;;3.63;2.40;;;16.40;57.80;;;;;;5151111;27;45301;-49
2024/01/30 08:27:35;;;;;;;4.70;2.80;;;16.40;58.00;;;;;;5152792;27;45459;-49
2024/01/30 08:30:02;;;;;;;3.38;2.30;;;16.50;57.90;;;;;;5149920;27;46313;-49
2024/01/30 08:32:29;;;;;;;2.63;2.35;;;16.40;57.80;;;;;;5152817;27;45348;-49
2024/01/30 08:34:55;;;;;;;3.10;2.20;;;16.40;57.90;;;;;;5151600;27;45169;-50
2024/01/30 08:37:22;;;;;;;6.00;2.88;;;16.40;58.10;;;;;;5149814;27;45261;-49
2024/01/30 08:39:50;;;;;;;5.55;3.03;;;16.40;58.10;;;;;;5151299;27;49051;-49
2024/01/30 08:42:18;;;;;;;3.85;2.58;;;16.40;58.40;;;;;;5154466;27;45196;-49
2024/01/30 08:44:45;;;;;;;4.95;2.88;;;16.40;58.50;;;;;;5149260;27;45281;-49
2024/01/30 08:47:11;;;;;;;4.90;2.95;;;16.40;58.50;;;;;;5150516;27;45214;-49
2024/01/30 08:49:38;;;;;;;3.92;2.47;;;16.40;58.70;;;;;;5152594;27;47053;-50
2024/01/30 08:52:06;;;;;;;3.72;2.40;;;16.40;58.50;;;;;;5155146;27;45171;-49
2024/01/30 08:54:34;;;;;;;4.75;2.50;;;16.40;58.60;;;;;;5151217;27;45310;-49
2024/01/30 08:57:02;;;;;;;4.57;2.80;;;16.40;58.70;;;;;;5150296;27;45245;-50
2024/01/30 08:59:29;;;;;;;4.80;2.40;;;16.40;58.70;;;;;;5155961;27;45327;-49
2024/01/30 09:01:57;;;;;;;3.63;2.22;;;16.40;58.80;;;;;;5151086;27;45174;-49
2024/01/30 09:04:24;;;;;;;4.03;2.60;;;16.40;58.70;;;;;;5153621;27;45626;-49
2024/01/30 09:06:51;;;;;;;5.00;2.83;;;16.40;58.80;;;;;;5150988;27;45134;-49
2024/01/30 09:09:19;;;;;;;4.22;2.67;;;16.40;58.80;;;;;;5151321;27;46010;-50
2024/01/30 09:11:45;;;;;;;6.05;3.00;;;16.40;58.70;;;;;;5151363;27;45334;-49
2024/01/30 09:14:14;;;;;;;4.15;2.55;;;16.40;58.60;;;;;;5150587;27;45184;-50
2024/01/30 09:16:40;;;;;;;3.17;2.17;;;16.40;58.80;;;;;;5149019;27;44720;-50
2024/01/30 09:19:07;;;;;;;5.53;3.00;;;16.40;58.70;;;;;;5148719;27;47113;-50
2024/01/30 09:21:34;;;;;;;4.32;2.53;;;16.40;58.70;;;;;;5148584;27;45245;-50
2024/01/30 09:24:04;;;;;;;5.57;3.40;;;16.50;59.10;;;;;;5151144;27;45166;-50
2024/01/30 09:26:31;;;;;;;4.50;2.42;;;16.50;59.20;;;;;;5146853;27;45360;-50
2024/01/30 09:28:58;;;;;;;3.35;2.40;;;16.40;59.20;;;;;;5148372;27;47093;-50
2024/01/30 09:31:27;;;;;;;4.75;2.92;;;16.50;59.40;;;;;;5150252;27;45286;-50
2024/01/30 09:33:53;;;;;;;4.65;2.95;;;16.50;59.60;;;;;;5151079;27;45240;-50
2024/01/30 09:36:20;;;;;;;3.58;2.60;;;16.40;59.50;;;;;;5146200;27;45345;-49
2024/01/30 09:38:47;;;;;;;4.45;2.72;;;16.40;59.40;;;;;;5149979;27;46218;-50
2024/01/30 09:41:14;;;;;;;4.80;2.75;;;16.40;59.40;;;;;;5147717;27;45296;-50
2024/01/30 09:43:41;;;;;;;4.97;2.50;;;16.40;59.40;;;;;;5151230;27;45121;-49
2024/01/30 09:46:12;;;;;;;3.85;2.40;;;16.40;59.60;;;;;;5149923;27;45327;-49
2024/01/30 09:48:42;;;;;;;4.13;2.90;;;16.40;59.60;;;;;;5150214;27;46184;-49
2024/01/30 09:51:10;;;;;;;3.95;2.75;;;16.40;59.80;;;;;;5147741;27;45468;-50
2024/01/30 09:53:37;;;;;;;3.70;2.55;;;16.30;59.80;;;;;;5152985;27;45700;-50
2024/01/30 09:56:06;;;;;;;3.67;2.50;;;16.40;60.10;;;;;;5148762;27;45381;-50
2024/01/30 09:58:33;;;;;;;6.03;2.83;;;16.30;60.00;;;;;;5148966;27;46422;-50
2024/01/30 10:00:59;;;;;;;4.50;2.63;;;16.40;60.10;;;;;;5147627;27;45152;-50
2024/01/30 10:03:26;;;;;;;4.45;2.92;;;16.30;60.00;;;;;;5150093;27;44706;-50
2024/01/30 10:05:56;;;;;;;4.78;2.70;;;16.30;60.00;;;;;;5152867;27;45182;-50
2024/01/30 10:08:23;;;;;;;4.03;2.63;;;16.30;60.00;;;;;;5149457;27;45405;-49
2024/01/30 10:10:51;;;;;;;3.88;2.47;;;16.40;60.10;;;;;;5152671;27;45233;-49
2024/01/30 10:13:18;;;;;;;3.47;2.63;;;16.30;60.10;;;;;;5150917;27;45189;-50
2024/01/30 10:15:45;;;;;;;5.53;2.53;;;16.30;60.20;;;;;;5150591;27;45042;-50
2024/01/30 10:18:12;;;;;;;5.63;2.53;;;16.40;60.30;;;;;;5153722;27;47634;-50
2024/01/30 10:20:38;;;;;;;3.85;2.30;;;16.40;60.30;;;;;;5151143;27;45349;-50
2024/01/30 10:23:07;;;;;;;5.32;2.55;;;16.40;60.30;;;;;;5151412;27;45160;-50
2024/01/30 10:25:34;;;;;;;4.57;2.50;;;16.40;60.40;;;;;;5153956;27;44782;-50
2024/01/30 10:28:01;;;;;;;4.18;2.72;;;16.40;60.40;;;;;;5150372;27;45266;-50
2024/01/30 10:30:28;;;;;;;3.55;2.50;;;16.40;60.40;;;;;;5148366;27;45161;-50
2024/01/30 10:32:55;;;;;;;4.05;2.70;;;16.40;60.40;;;;;;5151034;27;45207;-49
2024/01/30 10:35:22;;;;;;;4.18;2.70;;;16.40;60.40;;;;;;5152277;27;45164;-50
2024/01/30 10:37:49;;;;;;;3.58;2.28;;;16.40;60.40;;;;;;5145070;27;46509;-50
2024/01/30 10:40:17;;;;;;;3.15;2.30;;;16.40;60.70;;;;;;5152364;27;45357;-50
2024/01/30 10:42:45;;;;;;;4.00;2.47;;;16.40;60.50;;;;;;5153842;27;45342;-50
2024/01/30 10:45:13;;;;;;;4.40;2.55;;;16.50;61.00;;;;;;5153602;27;45338;-50
2024/01/30 10:47:44;;;;;;;5.20;3.13;;;16.40;60.70;;;;;;5152077;27;46557;-50
2024/01/30 10:50:12;;;;;;;3.08;2.30;;;16.40;60.90;;;;;;5153443;27;45185;-50
2024/01/30 10:52:42;;;;;;;4.35;2.47;;;16.40;60.90;;;;;;5150210;27;44712;-50
2024/01/30 10:55:09;;;;;;;4.68;2.78;;;16.40;60.80;;;;;;5153785;27;45207;-50
2024/01/30 10:57:38;;;;;;;3.58;2.38;;;16.40;60.90;;;;;;5151043;27;47271;-51
2024/01/30 11:00:10;;;;;;;6.25;2.90;;;16.40;61.00;;;;;;5152664;27;44719;-50
2024/01/30 11:02:38;;;;;;;4.60;2.78;;;16.40;61.20;;;;;;5152926;27;45263;-50
2024/01/30 11:05:06;;;;;;;4.70;2.38;;;16.40;61.10;;;;;;5153781;27;44708;-50
2024/01/30 11:07:33;;;;;;;5.53;2.72;;;16.40;61.20;;;;;;5153142;27;45278;-50
2024/01/30 11:10:04;;;;;;;4.65;2.42;;;16.40;61.40;;;;;;5147928;27;44670;-50
2024/01/30 11:12:34;;;;;;;4.78;2.30;;;16.40;61.20;;;;;;5154462;27;45117;-50
2024/01/30 11:15:07;;;;;;;5.47;2.88;;;16.40;61.20;;;;;;5152436;27;45358;-50
2024/01/30 11:17:52;;;;;;;4.53;2.90;;;16.40;61.40;;;;;;5155506;27;46243;-50
2024/01/30 11:20:21;;;;;;;5.03;2.67;;;16.40;62.80;;;;;;5154071;27;45231;-50
2024/01/30 11:22:48;;;;;;;3.03;2.22;;;16.50;61.60;;;;;;5156597;27;45227;-50
2024/01/30 11:25:16;;;;;;;3.63;2.53;;;16.50;61.50;;;;;;5154055;27;45341;-50
2024/01/30 11:27:44;;;;;;;3.22;2.10;;;16.50;61.80;;;;;;5155216;27;47456;-50
2024/01/30 11:30:21;;;;;;;3.90;2.33;;;16.50;61.50;;;;;;5152847;27;45333;-50
2024/01/30 11:32:59;;;;;;;4.72;2.40;;;16.50;61.60;;;;;;5151878;27;45320;-50
2024/01/30 11:35:26;;;;;;;3.70;2.30;;;16.50;61.60;;;;;;5155096;27;45362;-50
2024/01/30 11:37:55;;;;;;;4.38;2.70;;;16.50;60.90;;;;;;5150123;27;45233;-50
2024/01/30 11:40:22;;;;;;;4.68;2.90;;;16.50;60.30;;;;;;5147797;27;45275;-50
2024/01/30 11:42:50;;;;;;;5.30;3.15;;;16.50;60.30;;;;;;5151721;27;45108;-50
2024/01/30 11:45:18;;;;;;;3.58;2.50;;;16.50;60.80;;;;;;5152321;27;45317;-50
2024/01/30 11:47:45;;;;;;;4.55;2.25;;;16.40;61.00;;;;;;5150386;27;47469;-50
2024/01/30 11:50:12;;;;;;;4.32;2.22;;;16.40;61.50;;;;;;5149934;27;45263;-50
2024/01/30 11:52:39;;;;;;;5.47;2.42;;;16.40;61.80;;;;;;5152256;27;45178;-50
2024/01/30 11:55:08;;;;;;;4.50;2.20;;;16.40;62.20;;;;;;5150306;27;45330;-50
2024/01/30 11:57:36;;;;;;;4.35;2.15;;;16.40;62.50;;;;;;5152143;27;45331;-50
2024/01/30 12:00:08;;;;;;;4.78;2.25;;;16.40;62.70;;;;;;5151748;27;45156;-50
2024/01/30 12:02:36;;;;;;;5.93;2.63;;;16.40;62.70;;;;;;5149380;27;45342;-50
2024/01/30 12:05:05;;;;;;;3.45;1.98;;;16.40;62.80;;;;;;5150030;27;45192;-50
2024/01/30 12:07:32;;;;;;;4.18;2.40;;;16.40;62.80;;;;;;5154050;27;45326;-50
2024/01/30 12:09:59;;;;;;;4.72;2.05;;;16.40;63.20;;;;;;5150948;27;45607;-50
2024/01/30 12:12:27;;;;;;;6.68;2.50;;;16.40;63.00;;;;;;5155545;27;45153;-50
2024/01/30 12:14:54;;;;;;;4.05;2.10;;;16.40;63.00;;;;;;5151948;27;45331;-50
2024/01/30 12:17:25;;;;;;;5.47;2.60;;;16.40;63.20;;;;;;5152153;27;45236;-50
2024/01/30 12:20:04;;;;;;;5.50;2.58;;;16.50;63.10;;;;;;5151840;27;45198;-50
2024/01/30 12:22:31;;;;;;;3.25;2.15;;;16.50;63.10;;;;;;5151600;27;45385;-50
2024/01/30 12:24:58;;;;;;;4.22;2.00;;;16.50;62.90;;;;;;5152131;27;45529;-50
2024/01/30 12:27:25;;;;;;;4.35;2.20;;;16.50;62.80;;;;;;5153104;27;47508;-50
2024/01/30 12:29:57;;;;;;;4.85;2.30;;;16.50;62.60;;;;;;5150770;27;45704;-50
2024/01/30 12:32:24;;;;;;;5.65;2.10;;;16.50;62.60;;;;;;5151856;27;45282;-50
2024/01/30 12:34:55;;;;;;;4.65;2.28;;;16.50;62.60;;;;;;5155854;27;45243;-50
2024/01/30 12:37:22;;;;;;;4.95;2.13;;;16.50;62.80;;;;;;5151158;27;45193;-50
2024/01/30 12:39:49;;;;;;;3.55;2.17;;;16.60;62.90;;;;;;5149811;27;45114;-50
2024/01/30 12:42:16;;;;;;;3.50;2.10;;;16.50;62.90;;;;;;5154213;27;45164;-50
2024/01/30 12:44:43;;;;;;;3.97;2.05;;;16.50;63.20;;;;;;5151143;27;45136;-50
2024/01/30 12:47:10;;;;;;;6.68;2.13;;;16.50;63.10;;;;;;5148477;27;45449;-50